Time;durP1;ratioP1;P1;durP2;ratioP2;P2;SDS_P1;SDS_P2;PMS_P1;PMS_P2;Temp;Humidity;BMP_temperature;BMP_pressure;BME280_temperature;BME280_humidity;BME280_pressure;Samples;Min_cycle;Max_cycle;Signal;HPM_P1;HPM_P2
2023/07/03 00:00:12;;;;;;;21.73;13.20;;;19.60;1.00;;;;;;5027837;28;20564;-74
2023/07/03 00:02:38;;;;;;;25.30;13.10;;;19.60;1.00;;;;;;5029459;28;20209;-74
2023/07/03 00:05:06;;;;;;;22.27;13.33;;;19.60;1.00;;;;;;5027330;28;20440;-75
2023/07/03 00:07:32;;;;;;;25.43;12.67;;;19.60;1.00;;;;;;5029880;28;20555;-75
2023/07/03 00:09:58;;;;;;;26.80;12.93;;;19.60;1.00;;;;;;5027601;28;21057;-74
2023/07/03 00:12:23;;;;;;;22.50;12.13;;;19.70;1.00;;;;;;5023194;28;20594;-74
2023/07/03 00:14:49;;;;;;;24.10;13.53;;;19.70;1.00;;;;;;5028764;28;20268;-75
2023/07/03 00:17:15;;;;;;;24.70;12.20;;;19.70;1.00;;;;;;5029950;28;20196;-74
2023/07/03 00:19:40;;;;;;;19.63;11.43;;;19.60;1.00;;;;;;5027683;28;20248;-75
2023/07/03 00:22:06;;;;;;;23.27;12.80;;;19.60;1.00;;;;;;5029465;28;20518;-74
2023/07/03 00:24:32;;;;;;;26.70;12.27;;;19.60;1.00;;;;;;5030116;28;20552;-75
2023/07/03 00:26:58;;;;;;;23.07;12.83;;;19.70;1.00;;;;;;5029667;28;20181;-74
2023/07/03 00:29:24;;;;;;;27.10;12.07;;;19.60;1.00;;;;;;5029224;28;20474;-75
2023/07/03 00:31:50;;;;;;;20.10;11.63;;;19.60;1.00;;;;;;5023492;28;20441;-74
2023/07/03 00:34:16;;;;;;;24.27;12.07;;;19.70;1.00;;;;;;5028786;28;20607;-74
2023/07/03 00:36:42;;;;;;;24.23;12.20;;;19.70;1.00;;;;;;5028088;28;20472;-74
2023/07/03 00:39:08;;;;;;;20.60;10.93;;;19.70;1.00;;;;;;5024971;28;20496;-74
2023/07/03 00:41:34;;;;;;;21.90;11.30;;;19.70;1.00;;;;;;5029222;28;20182;-74
2023/07/03 00:44:00;;;;;;;23.77;11.57;;;19.70;1.00;;;;;;5029356;28;20708;-75
2023/07/03 00:46:25;;;;;;;22.37;11.97;;;19.80;1.00;;;;;;5027561;28;20562;-75
2023/07/03 00:48:51;;;;;;;21.07;12.03;;;19.90;1.00;;;;;;5029960;28;20205;-75
2023/07/03 00:51:17;;;;;;;19.43;10.90;;;19.70;1.00;;;;;;5028955;28;20555;-74
2023/07/03 00:53:44;;;;;;;18.40;10.63;;;19.70;1.00;;;;;;5029667;28;20185;-75
2023/07/03 00:56:10;;;;;;;23.90;11.30;;;19.80;1.00;;;;;;5027731;28;20687;-75
2023/07/03 00:58:36;;;;;;;18.93;11.43;;;19.80;1.00;;;;;;5028084;28;20478;-75
2023/07/03 01:01:15;;;;;;;20.60;10.97;;;19.80;1.00;;;;;;5028753;28;20818;-75
2023/07/03 01:03:47;;;;;;;19.73;11.10;;;19.90;1.00;;;;;;5029194;28;20201;-75
2023/07/03 01:06:21;;;;;;;21.73;11.47;;;19.80;1.00;;;;;;5028363;28;20483;-74
2023/07/03 01:08:52;;;;;;;23.03;11.00;;;19.80;1.00;;;;;;5029145;28;20506;-75
2023/07/03 01:11:19;;;;;;;20.93;11.50;;;21.90;1.00;;;;;;5028782;28;20810;-75
2023/07/03 01:13:48;;;;;;;28.10;11.50;;;19.80;1.00;;;;;;5029572;28;20467;-75
2023/07/03 01:16:15;;;;;;;23.57;11.33;;;19.80;1.00;;;;;;5029034;28;20444;-75
2023/07/03 01:18:43;;;;;;;23.30;11.80;;;19.90;1.00;;;;;;5028871;28;20535;-75
2023/07/03 01:21:39;;;;;;;24.73;11.40;;;19.90;1.00;;;;;;5030200;28;20954;-76
2023/07/03 01:24:12;;;;;;;21.20;11.27;;;19.90;1.00;;;;;;5024326;28;20447;-75
2023/07/03 01:26:39;;;;;;;21.70;10.50;;;19.80;1.00;;;;;;5029331;28;20501;-74
2023/07/03 01:29:07;;;;;;;21.10;11.47;;;19.80;1.00;;;;;;5028952;28;20533;-75
2023/07/03 01:31:35;;;;;;;23.70;11.17;;;19.90;1.00;;;;;;5028177;28;20460;-75
2023/07/03 01:34:01;;;;;;;29.10;11.33;;;19.80;1.00;;;;;;5020408;28;20437;-75
2023/07/03 01:36:30;;;;;;;21.40;11.10;;;19.90;1.00;;;;;;5028461;28;20478;-75
2023/07/03 01:38:58;;;;;;;21.50;11.33;;;19.90;1.00;;;;;;5024146;28;20999;-75
2023/07/03 01:41:24;;;;;;;22.97;12.07;;;19.80;1.00;;;;;;5029702;28;20535;-74
2023/07/03 01:43:51;;;;;;;21.03;11.90;;;19.80;1.00;;;;;;5022207;28;20482;-75
2023/07/03 01:46:16;;;;;;;27.10;11.13;;;19.70;1.00;;;;;;5029503;28;20420;-75
2023/07/03 01:48:42;;;;;;;21.53;10.60;;;19.60;1.00;;;;;;5028657;28;20905;-75
2023/07/03 01:51:11;;;;;;;21.30;11.83;;;19.60;1.00;;;;;;5028548;28;20588;-75
2023/07/03 01:53:54;;;;;;;25.60;11.33;;;19.50;1.00;;;;;;5022783;28;20186;-74
2023/07/03 01:56:28;;;;;;;21.00;10.90;;;19.40;1.00;;;;;;5027685;28;20428;-74
2023/07/03 01:59:06;;;;;;;24.70;11.23;;;19.40;1.00;;;;;;5093466;22;20486;-79
2023/07/03 02:01:37;;;;;;;23.10;11.33;;;19.40;1.00;;;;;;5048804;28;20547;-79
2023/07/03 02:04:13;;;;;;;23.97;12.43;;;19.40;1.00;;;;;;5055197;28;20498;-79
2023/07/03 02:06:44;;;;;;;20.83;11.57;;;19.40;1.00;;;;;;5060765;28;20445;-77
2023/07/03 02:09:10;;;;;;;20.93;10.90;;;19.40;1.00;;;;;;5054543;28;20467;-79
2023/07/03 02:11:36;;;;;;;20.60;12.00;;;19.40;1.00;;;;;;5056768;28;20871;-80
2023/07/03 02:14:02;;;;;;;21.47;11.27;;;19.40;1.00;;;;;;5055823;28;20443;-79
2023/07/03 02:16:31;;;;;;;19.80;11.63;;;19.40;1.00;;;;;;5058324;28;20693;-80
2023/07/03 02:18:58;;;;;;;20.60;12.23;;;19.30;1.00;;;;;;5068731;28;20324;-79
2023/07/03 02:21:24;;;;;;;23.10;12.20;;;19.30;1.00;;;;;;5061451;28;20488;-79
2023/07/03 02:23:49;;;;;;;25.00;12.53;;;19.30;1.00;;;;;;5063547;28;20554;-79
2023/07/03 02:26:15;;;;;;;23.07;11.97;;;19.30;1.00;;;;;;5054438;28;20822;-78
2023/07/03 02:28:41;;;;;;;20.97;12.00;;;19.20;1.00;;;;;;5068705;28;20206;-78
2023/07/03 02:31:07;;;;;;;23.57;11.13;;;19.20;1.00;;;;;;5059034;28;20249;-79
2023/07/03 02:33:32;;;;;;;25.80;11.40;;;19.20;1.00;;;;;;5059124;28;22805;-78
2023/07/03 02:36:02;;;;;;;23.10;11.43;;;19.20;1.00;;;;;;5066259;28;20183;-79
2023/07/03 02:38:28;;;;;;;21.60;11.77;;;19.10;1.00;;;;;;5059977;28;20189;-78
2023/07/03 02:40:53;;;;;;;22.37;12.03;;;19.10;1.00;;;;;;5062965;28;21014;-79
2023/07/03 02:43:19;;;;;;;24.03;11.70;;;19.20;1.00;;;;;;5059216;28;20227;-78
2023/07/03 02:45:45;;;;;;;23.80;11.37;;;19.20;1.00;;;;;;5068428;28;20180;-79
2023/07/03 02:48:10;;;;;;;20.20;11.23;;;19.20;1.00;;;;;;5068631;28;20271;-80
2023/07/03 02:50:36;;;;;;;24.40;10.93;;;19.20;1.00;;;;;;5065779;28;20604;-78
2023/07/03 02:53:02;;;;;;;24.37;11.40;;;19.10;1.00;;;;;;5072411;28;20177;-78
2023/07/03 02:55:28;;;;;;;25.00;12.10;;;19.10;1.00;;;;;;5066618;28;20641;-78
2023/07/03 02:57:54;;;;;;;26.53;11.20;;;19.20;1.00;;;;;;5071136;28;20565;-78
2023/07/03 03:00:20;;;;;;;22.23;12.27;;;19.20;1.00;;;;;;5062635;28;20311;-78
2023/07/03 03:02:47;;;;;;;23.40;11.47;;;19.20;1.00;;;;;;5058736;28;20988;-79
2023/07/03 03:05:13;;;;;;;19.80;11.30;;;19.10;1.00;;;;;;5051329;28;20278;-78
2023/07/03 03:07:39;;;;;;;19.83;10.97;;;18.50;1.00;;;;;;5065849;28;20470;-78
2023/07/03 03:10:05;;;;;;;22.00;11.17;;;19.10;1.00;;;;;;5053218;28;20803;-78
2023/07/03 03:12:30;;;;;;;22.00;11.80;;;19.10;1.00;;;;;;5053717;28;20251;-78
2023/07/03 03:14:56;;;;;;;20.50;11.67;;;19.10;1.00;;;;;;5062121;28;20435;-78
2023/07/03 03:17:21;;;;;;;19.80;11.50;;;19.20;1.00;;;;;;5071248;28;20241;-78
2023/07/03 03:19:47;;;;;;;20.97;10.30;;;19.30;1.00;;;;;;5060916;28;20208;-79
2023/07/03 03:22:12;;;;;;;24.67;12.43;;;19.30;1.00;;;;;;5064198;28;20209;-78
2023/07/03 03:24:38;;;;;;;21.10;11.13;;;19.40;1.00;;;;;;5071433;28;20184;-78
2023/07/03 03:27:06;;;;;;;22.30;11.27;;;19.40;1.00;;;;;;5069421;28;20184;-78
2023/07/03 03:29:33;;;;;;;22.00;11.50;;;19.40;1.00;;;;;;5071565;28;20203;-78
2023/07/03 03:31:59;;;;;;;23.70;11.70;;;19.40;1.00;;;;;;5063092;28;20445;-78
2023/07/03 03:34:24;;;;;;;21.07;11.70;;;19.40;1.00;;;;;;5069966;28;20434;-79
2023/07/03 03:36:50;;;;;;;22.73;11.87;;;19.30;1.00;;;;;;5064556;28;20188;-79
2023/07/03 03:39:15;;;;;;;21.07;11.60;;;19.40;1.00;;;;;;5071709;28;20211;-78
2023/07/03 03:41:41;;;;;;;19.87;11.63;;;19.30;1.00;;;;;;5062611;28;20195;-79
2023/07/03 03:44:06;;;;;;;23.70;10.93;;;19.30;1.00;;;;;;5062676;28;20652;-78
2023/07/03 03:46:34;;;;;;;22.60;11.47;;;19.30;1.00;;;;;;5059589;28;20180;-78
2023/07/03 03:49:00;;;;;;;22.40;11.93;;;19.20;1.00;;;;;;5059569;28;20207;-79
2023/07/03 03:51:25;;;;;;;21.60;11.60;;;19.20;1.00;;;;;;5067739;28;20951;-78
2023/07/03 03:53:51;;;;;;;19.63;12.47;;;19.20;1.00;;;;;;5064341;28;20195;-78
2023/07/03 03:56:16;;;;;;;19.00;10.83;;;19.20;1.00;;;;;;5065595;28;20259;-79
2023/07/03 03:58:42;;;;;;;20.07;11.13;;;19.30;1.00;;;;;;5070370;28;20204;-78
2023/07/03 04:01:07;;;;;;;22.23;11.20;;;19.20;1.00;;;;;;5068587;28;20206;-78
2023/07/03 04:03:33;;;;;;;17.03;10.73;;;19.30;1.00;;;;;;5070686;28;20234;-78
2023/07/03 04:05:58;;;;;;;21.33;11.40;;;19.30;1.00;;;;;;5070482;28;20697;-78
2023/07/03 04:08:24;;;;;;;24.67;11.60;;;19.30;1.00;;;;;;5066300;28;20264;-79
2023/07/03 04:10:50;;;;;;;17.10;11.00;;;19.30;1.00;;;;;;5074895;28;20184;-78
2023/07/03 04:13:16;;;;;;;19.30;10.63;;;19.40;1.00;;;;;;5060612;28;20215;-78
2023/07/03 04:15:53;;;;;;;21.00;10.77;;;19.40;1.00;;;;;;5058308;28;20188;-79
2023/07/03 04:18:20;;;;;;;23.13;12.17;;;19.40;1.00;;;;;;5059469;28;20267;-79
2023/07/03 04:20:46;;;;;;;18.93;10.00;;;19.50;1.00;;;;;;5066557;28;20952;-79
2023/07/03 04:23:11;;;;;;;22.37;10.80;;;19.50;1.00;;;;;;5070922;28;20778;-79
2023/07/03 04:25:37;;;;;;;23.20;11.50;;;19.50;1.00;;;;;;5060767;28;20434;-80
2023/07/03 04:28:03;;;;;;;20.30;10.80;;;19.60;1.00;;;;;;5070946;28;20196;-78
2023/07/03 04:30:28;;;;;;;20.77;11.10;;;19.50;1.00;;;;;;5058147;28;20204;-78
2023/07/03 04:32:54;;;;;;;20.00;10.47;;;19.50;1.00;;;;;;5059371;28;20189;-78
2023/07/03 04:35:21;;;;;;;23.77;11.70;;;19.50;1.00;;;;;;5066296;28;20237;-78
2023/07/03 04:37:46;;;;;;;19.80;11.00;;;19.50;1.00;;;;;;5063180;28;20465;-78
2023/07/03 04:40:12;;;;;;;19.33;10.47;;;19.60;1.00;;;;;;5062408;28;20474;-78
2023/07/03 04:42:38;;;;;;;24.37;11.17;;;19.70;1.00;;;;;;5066600;28;20211;-79
2023/07/03 04:45:06;;;;;;;22.37;10.30;;;19.70;1.00;;;;;;5058411;28;20423;-79
2023/07/03 04:47:31;;;;;;;18.77;11.53;;;19.80;1.00;;;;;;5058583;28;20234;-80
2023/07/03 04:49:58;;;;;;;21.97;10.90;;;19.80;1.00;;;;;;5067752;28;20939;-79
2023/07/03 04:52:27;;;;;;;21.30;9.97;;;19.90;1.00;;;;;;5066238;28;20180;-80
2023/07/03 04:54:54;;;;;;;17.10;10.40;;;20.00;1.00;;;;;;5069285;28;20800;-78
2023/07/03 04:57:20;;;;;;;20.40;10.80;;;20.00;1.00;;;;;;5059524;28;20421;-79
2023/07/03 04:59:46;;;;;;;23.00;11.47;;;20.00;1.00;;;;;;5060699;28;20473;-79
2023/07/03 05:02:16;;;;;;;20.00;11.63;;;20.00;1.00;;;;;;5068674;28;20966;-76
2023/07/03 05:04:42;;;;;;;21.27;10.73;;;20.00;1.00;;;;;;5055948;28;22925;-78
2023/07/03 05:07:08;;;;;;;21.17;10.67;;;20.00;1.00;;;;;;5063045;28;20798;-79
2023/07/03 05:09:33;;;;;;;20.33;10.80;;;19.90;1.00;;;;;;5066405;28;20436;-80
2023/07/03 05:11:59;;;;;;;17.37;9.93;;;20.00;1.00;;;;;;5066722;28;20297;-78
2023/07/03 05:14:24;;;;;;;24.33;11.47;;;20.10;1.00;;;;;;5059306;28;20196;-78
2023/07/03 05:16:50;;;;;;;20.80;10.90;;;20.20;1.00;;;;;;5057159;28;20184;-79
2023/07/03 05:19:15;;;;;;;20.33;10.90;;;20.20;1.00;;;;;;5057374;28;20208;-80
2023/07/03 05:21:41;;;;;;;22.10;10.80;;;20.60;1.00;;;;;;5058805;28;20184;-79
2023/07/03 05:24:06;;;;;;;21.47;10.17;;;20.20;1.00;;;;;;5069709;28;20188;-79
2023/07/03 05:26:32;;;;;;;22.43;11.63;;;20.20;1.00;;;;;;5069660;28;20255;-79
2023/07/03 05:28:57;;;;;;;26.90;10.67;;;20.30;1.00;;;;;;5057090;28;20571;-80
2023/07/03 05:31:23;;;;;;;29.53;12.40;;;20.40;1.00;;;;;;5066124;28;20219;-79
2023/07/03 05:33:50;;;;;;;24.93;11.00;;;20.40;1.00;;;;;;5061078;28;20210;-78
2023/07/03 05:36:15;;;;;;;25.40;10.47;;;20.20;1.00;;;;;;5060350;28;20263;-78
2023/07/03 05:38:41;;;;;;;19.87;10.70;;;20.20;1.00;;;;;;5067057;28;21019;-78
2023/07/03 05:41:06;;;;;;;24.50;11.17;;;20.20;1.00;;;;;;5063974;28;20176;-80
2023/07/03 05:43:32;;;;;;;21.93;11.43;;;20.30;1.00;;;;;;5068073;28;20239;-79
2023/07/03 05:45:58;;;;;;;19.77;9.90;;;20.40;1.00;;;;;;5064251;28;20204;-79
2023/07/03 05:48:24;;;;;;;19.27;10.53;;;20.50;1.00;;;;;;5064929;28;20182;-79
2023/07/03 05:50:49;;;;;;;20.50;10.90;;;20.50;1.00;;;;;;5062741;28;20176;-79
2023/07/03 05:53:15;;;;;;;19.10;10.90;;;20.60;1.00;;;;;;5054250;28;20419;-79
2023/07/03 05:55:41;;;;;;;21.00;10.20;;;20.60;1.00;;;;;;5067619;28;20218;-79
2023/07/03 05:58:06;;;;;;;21.03;10.80;;;20.90;1.00;;;;;;5056355;28;20646;-78
2023/07/03 06:00:32;;;;;;;19.97;9.83;;;20.90;1.00;;;;;;5062393;28;20215;-78
2023/07/03 06:02:59;;;;;;;18.90;10.17;;;21.00;1.00;;;;;;5061993;28;20207;-78
2023/07/03 06:05:24;;;;;;;20.50;11.00;;;21.00;1.00;;;;;;5058113;28;20184;-78
2023/07/03 06:07:50;;;;;;;22.33;10.13;;;20.90;1.00;;;;;;5060408;28;20418;-78
2023/07/03 06:10:16;;;;;;;19.47;10.30;;;20.90;1.00;;;;;;5069952;28;20203;-78
2023/07/03 06:12:42;;;;;;;21.80;10.30;;;20.70;1.00;;;;;;5061127;28;20207;-78
2023/07/03 06:15:09;;;;;;;22.57;9.90;;;20.60;1.00;;;;;;5072941;28;20188;-78
2023/07/03 06:17:36;;;;;;;20.83;10.53;;;20.50;1.00;;;;;;5061781;28;20427;-80
2023/07/03 06:20:03;;;;;;;23.93;9.43;;;20.70;1.00;;;;;;5056414;28;20958;-78
2023/07/03 06:22:29;;;;;;;25.37;10.23;;;20.70;1.00;;;;;;5067022;28;20454;-80
2023/07/03 06:24:54;;;;;;;15.13;8.30;;;20.70;1.00;;;;;;5059576;28;20476;-77
2023/07/03 06:27:20;;;;;;;17.57;9.20;;;20.60;1.00;;;;;;5067811;28;20181;-79
2023/07/03 06:29:45;;;;;;;18.50;9.23;;;20.60;1.00;;;;;;5051022;28;20226;-80
2023/07/03 06:32:11;;;;;;;22.90;8.93;;;20.70;1.00;;;;;;5062858;28;20183;-79
2023/07/03 06:34:37;;;;;;;19.23;8.30;;;20.60;1.00;;;;;;5055879;28;20188;-79
2023/07/03 06:37:05;;;;;;;20.87;7.87;;;20.20;1.00;;;;;;5067840;28;20180;-79
2023/07/03 06:39:32;;;;;;;18.60;7.47;;;20.60;1.00;;;;;;5052028;28;20832;-79
2023/07/03 06:41:58;;;;;;;18.43;8.00;;;20.60;1.00;;;;;;5065298;28;20453;-78
2023/07/03 06:44:23;;;;;;;16.63;8.23;;;20.70;1.00;;;;;;5058935;28;20309;-76
2023/07/03 06:46:50;;;;;;;22.77;8.37;;;20.80;1.00;;;;;;5063518;28;20544;-79
2023/07/03 06:49:16;;;;;;;16.70;8.00;;;21.00;1.00;;;;;;5062131;28;20197;-79
2023/07/03 06:51:42;;;;;;;17.67;7.70;;;21.10;1.00;;;;;;5068174;28;20441;-81
2023/07/03 06:54:08;;;;;;;18.17;7.60;;;21.20;1.00;;;;;;5065862;28;20785;-79
2023/07/03 06:56:33;;;;;;;17.43;7.90;;;21.20;1.00;;;;;;5063780;28;20206;-76
2023/07/03 06:58:59;;;;;;;17.97;7.80;;;21.30;1.00;;;;;;5073418;28;20213;-78
2023/07/03 07:01:28;;;;;;;20.73;7.93;;;21.30;1.00;;;;;;5073630;28;20187;-80
2023/07/03 07:03:54;;;;;;;20.30;7.83;;;21.40;1.00;;;;;;5072313;28;20191;-79
2023/07/03 07:06:25;;;;;;;15.70;7.67;;;21.60;1.00;;;;;;5074739;28;20422;-75
2023/07/03 07:08:51;;;;;;;16.83;7.40;;;21.80;1.00;;;;;;5067781;28;20195;-78
2023/07/03 07:11:21;;;;;;;30.83;8.30;;;21.90;1.00;;;;;;5071750;28;20804;-79
2023/07/03 07:13:48;;;;;;;14.80;7.90;;;22.00;1.00;;;;;;5066700;28;20791;-78
2023/07/03 07:16:22;;;;;;;17.80;7.97;;;22.10;1.00;;;;;;5063997;28;20484;-79
2023/07/03 07:18:50;;;;;;;15.20;7.77;;;22.20;1.00;;;;;;5066529;28;20444;-77
2023/07/03 07:21:16;;;;;;;18.10;8.63;;;22.20;1.00;;;;;;5058733;28;20445;-77
2023/07/03 07:23:41;;;;;;;18.57;8.50;;;22.20;1.00;;;;;;5060152;28;20785;-77
2023/07/03 07:26:07;;;;;;;17.33;7.63;;;22.10;1.00;;;;;;5057830;28;20275;-77
2023/07/03 07:28:33;;;;;;;20.33;7.90;;;22.40;1.00;;;;;;5058248;28;20556;-78
2023/07/03 07:30:58;;;;;;;15.43;7.57;;;22.80;1.00;;;;;;5068339;28;20196;-77
2023/07/03 07:33:24;;;;;;;12.73;6.90;;;22.80;1.00;;;;;;5078391;28;20275;-79
2023/07/03 07:35:51;;;;;;;13.43;6.83;;;22.90;1.00;;;;;;5077086;28;20192;-78
2023/07/03 07:38:18;;;;;;;14.83;7.23;;;22.90;1.00;;;;;;5072668;28;20723;-78
2023/07/03 07:40:43;;;;;;;19.20;7.27;;;22.90;1.00;;;;;;5069761;28;20929;-78
2023/07/03 07:43:09;;;;;;;16.73;7.00;;;23.20;1.00;;;;;;5064416;28;20465;-77
2023/07/03 07:45:34;;;;;;;15.73;7.13;;;23.30;1.00;;;;;;5067649;28;20678;-79
2023/07/03 07:48:00;;;;;;;15.97;6.90;;;23.30;1.00;;;;;;5073928;28;20172;-77
2023/07/03 07:50:27;;;;;;;14.10;6.03;;;23.30;1.00;;;;;;5075758;28;20279;-76
2023/07/03 07:52:53;;;;;;;14.57;6.67;;;23.50;1.00;;;;;;5073517;28;20182;-78
2023/07/03 07:55:19;;;;;;;11.70;5.13;;;24.10;1.00;;;;;;5073404;28;20959;-76
2023/07/03 07:57:45;;;;;;;13.03;5.60;;;24.10;1.00;;;;;;5060896;28;20454;-78
2023/07/03 08:00:11;;;;;;;9.80;5.23;;;24.00;1.00;;;;;;5063122;22;20221;-78
2023/07/03 08:02:36;;;;;;;11.03;4.70;;;24.10;1.00;;;;;;5025828;28;20208;-79
2023/07/03 08:05:02;;;;;;;11.43;4.70;;;24.40;1.00;;;;;;5031413;28;20424;-79
2023/07/03 08:07:28;;;;;;;8.90;3.90;;;24.50;1.00;;;;;;5031988;28;20185;-78
2023/07/03 08:09:53;;;;;;;9.43;4.20;;;24.60;1.00;;;;;;5030779;28;20217;-77
2023/07/03 08:12:19;;;;;;;9.70;4.10;;;24.60;1.00;;;;;;5031502;28;20185;-78
2023/07/03 08:14:44;;;;;;;6.10;3.83;;;24.90;1.00;;;;;;5029329;28;20711;-80
2023/07/03 08:17:10;;;;;;;9.03;4.20;;;24.80;1.00;;;;;;5030795;28;20196;-79
2023/07/03 08:19:36;;;;;;;8.57;4.30;;;24.70;1.00;;;;;;5031172;28;20587;-78
2023/07/03 08:22:01;;;;;;;8.80;4.23;;;24.70;1.00;;;;;;5031611;28;20279;-78
2023/07/03 08:24:27;;;;;;;8.70;4.20;;;24.80;1.00;;;;;;5031210;28;20193;-78
2023/07/03 08:26:54;;;;;;;7.33;3.70;;;25.00;1.00;;;;;;5028637;28;20264;-79
2023/07/03 08:29:19;;;;;;;8.20;4.00;;;25.10;1.00;;;;;;5031895;28;20651;-76
2023/07/03 08:31:45;;;;;;;15.80;4.57;;;25.10;1.00;;;;;;5029429;28;20452;-79
2023/07/03 08:34:11;;;;;;;11.43;4.10;;;25.30;1.00;;;;;;5030630;28;20177;-78
2023/07/03 08:36:37;;;;;;;14.00;4.60;;;25.50;1.00;;;;;;5026144;28;20200;-77
2023/07/03 08:39:04;;;;;;;11.00;4.60;;;25.60;1.00;;;;;;5030796;28;20201;-77
2023/07/03 08:41:34;;;;;;;10.60;4.20;;;25.80;1.00;;;;;;5028544;28;20542;-79
2023/07/03 08:44:01;;;;;;;15.00;4.60;;;25.60;1.00;;;;;;5029012;28;20529;-80
2023/07/03 08:46:31;;;;;;;11.00;4.60;;;25.50;1.00;;;;;;5025481;28;20451;-78
2023/07/03 08:49:03;;;;;;;9.90;4.80;;;25.60;1.00;;;;;;5023289;28;20443;-77
2023/07/03 08:51:32;;;;;;;12.27;4.63;;;26.10;1.00;;;;;;5027750;28;20793;-79
2023/07/03 08:54:20;;;;;;;7.80;4.33;;;26.00;1.00;;;;;;5029483;28;20436;-79
2023/07/03 08:56:47;;;;;;;12.00;5.33;;;26.00;1.00;;;;;;5030426;28;20439;-79
2023/07/03 08:59:13;;;;;;;10.97;4.70;;;25.60;1.00;;;;;;5028066;28;20451;-80
2023/07/03 09:01:52;;;;;;;8.70;4.33;;;25.60;1.00;;;;;;5023282;28;20437;-79
2023/07/03 09:04:48;;;;;;;10.47;4.67;;;25.40;1.00;;;;;;5030387;28;20185;-78
2023/07/03 09:07:33;;;;;;;11.83;5.23;;;25.30;1.00;;;;;;5029013;28;20942;-79
2023/07/03 09:10:23;;;;;;;9.37;4.33;;;25.30;1.00;;;;;;5030055;28;20582;-79
2023/07/03 09:13:12;;;;;;;14.53;4.77;;;25.70;1.00;;;;;;5030095;28;20427;-79
2023/07/03 09:15:43;;;;;;;10.57;4.63;;;25.80;1.00;;;;;;5029070;28;20998;-77
2023/07/03 09:18:14;;;;;;;10.60;4.30;;;25.80;1.00;;;;;;5029691;28;20435;-79
2023/07/03 09:20:41;;;;;;;10.40;4.10;;;25.40;1.00;;;;;;5029629;28;20551;-80
2023/07/03 09:23:23;;;;;;;8.50;3.97;;;25.00;1.00;;;;;;5024460;28;20463;-79
2023/07/03 09:26:00;;;;;;;8.30;3.40;;;24.70;1.00;;;;;;5025892;28;20435;-78
2023/07/03 09:28:26;;;;;;;8.10;3.83;;;24.80;1.00;;;;;;5027930;28;20450;-79
2023/07/03 09:30:53;;;;;;;6.63;2.93;;;25.30;1.00;;;;;;5026698;28;20819;-78
2023/07/03 09:33:19;;;;;;;8.87;2.90;;;25.40;1.00;;;;;;5027148;28;20561;-77
2023/07/03 09:35:45;;;;;;;8.03;3.10;;;24.80;1.00;;;;;;5027060;28;20507;-78
2023/07/03 09:38:21;;;;;;;8.90;3.10;;;24.20;1.00;;;;;;5095501;27;20550;-76
2023/07/03 09:40:53;;;;;;;8.33;3.10;;;23.40;1.00;;;;;;5091610;28;20448;-75
2023/07/03 09:43:27;;;;;;;6.20;2.67;;;23.40;1.00;;;;;;5089363;28;20471;-74
2023/07/03 09:46:08;;;;;;;6.33;3.20;;;23.40;1.00;;;;;;5084806;28;20502;-78
2023/07/03 09:48:35;;;;;;;8.70;3.20;;;23.30;1.00;;;;;;5081024;28;20469;-78
2023/07/03 09:51:15;;;;;;;4.73;2.70;;;23.50;1.00;;;;;;5089454;28;20465;-78
2023/07/03 09:53:41;;;;;;;8.20;3.00;;;24.20;1.00;;;;;;5087372;28;20469;-78
2023/07/03 09:56:14;;;;;;;5.97;2.50;;;24.70;1.00;;;;;;5085304;28;20945;-79
2023/07/03 09:58:44;;;;;;;5.60;2.40;;;24.40;1.00;;;;;;5084715;28;20597;-77
2023/07/03 10:01:16;;;;;;;7.53;3.07;;;24.50;1.00;;;;;;5083583;28;20860;-78
2023/07/03 10:03:42;;;;;;;9.57;2.77;;;24.40;1.00;;;;;;5082013;28;20437;-79
2023/07/03 10:06:17;;;;;;;7.80;2.80;;;24.70;1.00;;;;;;5088827;28;20449;-79
2023/07/03 10:08:49;;;;;;;8.27;3.00;;;25.30;1.00;;;;;;5089082;28;20182;-78
2023/07/03 10:11:21;;;;;;;14.10;3.57;;;25.60;1.00;;;;;;5082441;28;20514;-78
2023/07/03 10:13:51;;;;;;;6.40;2.80;;;26.20;1.00;;;;;;5082166;28;20446;-78
2023/07/03 10:16:19;;;;;;;4.47;2.60;;;26.80;1.00;;;;;;5087266;28;20461;-79
2023/07/03 10:18:51;;;;;;;6.90;3.20;;;26.40;1.00;;;;;;5085520;28;20523;-76
2023/07/03 10:21:23;;;;;;;6.30;2.40;;;26.10;1.00;;;;;;5086814;28;20460;-77
2023/07/03 10:23:49;;;;;;;10.10;3.27;;;25.70;1.00;;;;;;5086390;28;20433;-78
2023/07/03 10:26:22;;;;;;;11.53;2.80;;;26.40;1.00;;;;;;5091645;28;20842;-77
2023/07/03 10:28:56;;;;;;;5.93;2.50;;;25.60;1.00;;;;;;5088312;28;20798;-77
2023/07/03 10:31:37;;;;;;;7.87;3.10;;;24.80;1.00;;;;;;5082060;28;20468;-78
2023/07/03 10:34:13;;;;;;;9.10;3.00;;;24.40;1.00;;;;;;5084632;28;20808;-77
2023/07/03 10:36:40;;;;;;;8.97;3.10;;;24.40;1.00;;;;;;5084145;28;20549;-79
2023/07/03 10:39:11;;;;;;;9.90;5.10;;;24.70;1.00;;;;;;5087635;28;20464;-78
2023/07/03 10:41:56;;;;;;;8.67;2.90;;;25.00;1.00;;;;;;5085430;28;20437;-78
2023/07/03 10:44:32;;;;;;;10.57;3.10;;;26.00;1.00;;;;;;5080034;28;20528;-79
2023/07/03 10:46:59;;;;;;;8.80;2.97;;;26.10;1.00;;;;;;5080946;28;21044;-78
2023/07/03 10:49:33;;;;;;;6.87;3.00;;;26.30;1.00;;;;;;5078607;28;20541;-79
2023/07/03 10:52:06;;;;;;;6.97;3.00;;;26.30;1.00;;;;;;5075205;28;21058;-77
2023/07/03 10:54:55;;;;;;;8.77;3.00;;;27.50;1.00;;;;;;5066715;28;20655;-79
2023/07/03 10:57:40;;;;;;;7.80;3.13;;;28.10;1.00;;;;;;5076659;28;20465;-76
2023/07/03 11:00:12;;;;;;;13.47;5.20;;;27.50;1.00;;;;;;5076788;28;20199;-75
2023/07/03 11:02:51;;;;;;;9.50;3.83;;;27.70;1.00;;;;;;5074988;28;20184;-74
2023/07/03 11:05:20;;;;;;;6.30;3.10;;;27.40;1.00;;;;;;5076875;28;20550;-77
2023/07/03 11:08:07;;;;;;;13.60;3.67;;;26.80;1.00;;;;;;5070369;28;20594;-77
2023/07/03 11:11:02;;;;;;;8.63;4.00;;;26.70;1.00;;;;;;5066311;28;20657;-77
2023/07/03 11:13:40;;;;;;;7.77;3.20;;;26.50;1.00;;;;;;5069328;28;20445;-77
2023/07/03 11:16:13;;;;;;;7.30;3.07;;;26.70;1.00;;;;;;5069854;28;20545;-76
2023/07/03 11:19:08;;;;;;;9.80;3.60;;;26.10;1.00;;;;;;5076916;28;20446;-77
2023/07/03 11:21:51;;;;;;;8.00;2.87;;;26.60;1.00;;;;;;5064528;28;20718;-77
2023/07/03 11:24:24;;;;;;;8.17;3.20;;;26.80;1.00;;;;;;5070402;28;20808;-77
2023/07/03 11:26:58;;;;;;;6.40;2.63;;;26.70;1.00;;;;;;5069820;28;20180;-77
2023/07/03 11:29:25;;;;;;;8.03;2.90;;;28.60;1.00;;;;;;5076752;28;20433;-76
2023/07/03 11:31:51;;;;;;;8.57;3.20;;;28.70;1.00;;;;;;5065853;28;20714;-77
2023/07/03 11:34:19;;;;;;;6.20;3.00;;;29.10;1.00;;;;;;5074544;28;20179;-76
2023/07/03 11:36:50;;;;;;;7.67;3.10;;;29.10;1.00;;;;;;5074966;28;20208;-77
2023/07/03 11:39:27;;;;;;;6.23;3.03;;;29.60;1.00;;;;;;5071159;28;20184;-79
2023/07/03 11:42:01;;;;;;;5.60;3.00;;;29.50;1.00;;;;;;5072309;28;20281;-76
2023/07/03 11:44:27;;;;;;;7.33;3.20;;;29.00;1.00;;;;;;5074117;28;20210;-77
2023/07/03 11:46:54;;;;;;;7.63;3.20;;;28.20;1.00;;;;;;5075722;28;20662;-77
2023/07/03 11:49:25;;;;;;;7.30;2.73;;;28.30;1.00;;;;;;5068500;28;20659;-79
2023/07/03 11:51:57;;;;;;;7.60;2.90;;;28.30;1.00;;;;;;5068870;28;20199;-79
2023/07/03 11:54:26;;;;;;;10.33;3.23;;;28.20;1.00;;;;;;5072516;28;20191;-78
2023/07/03 11:56:54;;;;;;;7.33;3.13;;;28.80;1.00;;;;;;5067700;28;21745;-77
2023/07/03 11:59:22;;;;;;;6.90;3.17;;;28.90;1.00;;;;;;5069914;28;20204;-78
2023/07/03 12:01:53;;;;;;;4.63;2.67;;;29.00;1.00;;;;;;5068330;28;20267;-78
2023/07/03 12:04:47;;;;;;;7.20;3.07;;;29.50;1.00;;;;;;5073304;28;20538;-78
2023/07/03 12:07:19;;;;;;;7.22;2.70;;;30.20;1.00;;;;;;5075210;28;20186;-79
2023/07/03 12:09:46;;;;;;;8.32;3.22;;;30.50;1.00;;;;;;5072823;28;20199;-79
2023/07/03 12:12:14;;;;;;;10.67;3.27;;;30.60;1.00;;;;;;5069924;28;20192;-76
2023/07/03 12:14:40;;;;;;;6.60;3.00;;;28.70;1.00;;;;;;5068294;28;20176;-74
2023/07/03 12:17:19;;;;;;;11.47;3.37;;;27.60;1.00;;;;;;5074357;28;20579;-77
2023/07/03 12:19:47;;;;;;;4.93;2.73;;;27.20;1.00;;;;;;5068650;28;20265;-78
2023/07/03 12:22:14;;;;;;;6.60;2.80;;;27.50;1.00;;;;;;5075633;28;20180;-77
2023/07/03 12:24:40;;;;;;;5.90;2.83;;;27.20;1.00;;;;;;5069624;28;20203;-77
2023/07/03 12:27:08;;;;;;;8.50;3.37;;;27.20;1.00;;;;;;5075464;28;20180;-78
2023/07/03 12:29:45;;;;;;;6.20;3.23;;;26.90;1.00;;;;;;5074557;28;20285;-77
2023/07/03 12:32:11;;;;;;;9.97;3.30;;;27.60;1.00;;;;;;5072931;28;20583;-76
2023/07/03 12:34:40;;;;;;;5.57;2.83;;;28.50;1.00;;;;;;5076383;28;20182;-75
2023/07/03 12:37:15;;;;;;;13.80;3.47;;;28.70;1.00;;;;;;5067475;28;20199;-76
2023/07/03 12:39:43;;;;;;;5.87;2.87;;;27.90;1.00;;;;;;5073575;28;20203;-77
2023/07/03 12:42:11;;;;;;;9.03;3.30;;;27.60;1.00;;;;;;5067891;28;20206;-77
2023/07/03 12:44:37;;;;;;;6.50;3.33;;;27.50;1.00;;;;;;5070085;28;20186;-78
2023/07/03 12:47:16;;;;;;;8.03;3.13;;;26.60;1.00;;;;;;5075386;28;20183;-77
2023/07/03 12:50:15;;;;;;;6.03;3.23;;;26.40;1.00;;;;;;5070377;28;20195;-76
2023/07/03 12:52:40;;;;;;;7.77;2.33;;;27.40;1.00;;;;;;5069449;28;20211;-77